createdAt,value
2022-09-20T00:02:50.942Z,7.79
2022-09-20T00:05:54.452Z,7.72
2022-09-20T00:09:01.441Z,7.66
2022-09-20T00:12:05.498Z,7.65
2022-09-20T00:15:10.639Z,7.64
2022-09-20T00:18:14.750Z,7.61
2022-09-20T00:21:21.280Z,7.58
2022-09-20T00:24:26.633Z,7.58
2022-09-20T00:27:30.951Z,7.53
2022-09-20T00:30:35.655Z,7.47
2022-09-20T00:33:56.477Z,7.46
2022-09-20T00:37:00.039Z,7.51
2022-09-20T00:40:07.838Z,7.43
2022-09-20T00:43:17.129Z,7.43
2022-09-20T00:46:29.390Z,7.40
2022-09-20T00:49:35.244Z,7.38
2022-09-20T00:52:39.450Z,7.34
2022-09-20T00:55:50.972Z,7.36
2022-09-20T00:59:15.635Z,7.40
2022-09-20T01:02:27.278Z,7.38
2022-09-20T01:05:31.359Z,7.37
2022-09-20T01:08:37.454Z,7.42
2022-09-20T01:11:43.351Z,7.43
2022-09-20T01:14:50.870Z,7.46
2022-09-20T01:17:59.178Z,7.43
2022-09-20T01:21:05.166Z,7.49
2022-09-20T01:24:21.143Z,7.43
2022-09-20T01:27:41.458Z,7.44
2022-09-20T01:30:52.572Z,7.48
2022-09-20T01:34:03.038Z,7.53
2022-09-20T01:37:16.510Z,7.53
2022-09-20T01:40:32.254Z,7.58
2022-09-20T01:43:48.906Z,7.65
2022-09-20T01:47:02.078Z,7.68
2022-09-20T01:50:31.182Z,7.77
2022-09-20T01:54:11.336Z,7.84
2022-09-20T01:57:59.777Z,7.92
2022-09-20T02:02:07.637Z,8.00
2022-09-20T02:05:59.812Z,8.12
2022-09-20T02:09:48.202Z,8.15
2022-09-20T02:12:57.277Z,8.21
2022-09-20T02:16:37.404Z,8.23
2022-09-20T02:20:09.018Z,8.30
2022-09-20T02:23:36.227Z,8.38
2022-09-20T02:26:52.339Z,8.50
2022-09-20T02:30:20.763Z,8.53
2022-09-20T02:34:04.867Z,8.62
2022-09-20T02:37:40.872Z,8.58
2022-09-20T02:41:12.882Z,8.60
2022-09-20T02:44:30.662Z,8.60
2022-09-20T02:47:39.159Z,8.51
2022-09-20T02:50:57.291Z,8.43
2022-09-20T02:54:18.306Z,8.40
2022-09-20T02:57:34.807Z,8.39
2022-09-20T03:00:49.754Z,8.41
2022-09-20T03:04:09.205Z,8.42
2022-09-20T03:07:27.755Z,8.45
2022-09-20T03:10:45.091Z,8.52
2022-09-20T03:14:14.709Z,8.51
2022-09-20T03:17:36.521Z,8.53
2022-09-20T03:20:57.752Z,8.46
2022-09-20T03:24:19.380Z,8.44
2022-09-20T03:27:40.779Z,8.45
2022-09-20T03:31:01.803Z,8.48
2022-09-20T03:34:24.511Z,8.50
2022-09-20T03:37:59.697Z,8.47
2022-09-20T03:41:48.286Z,8.43
2022-09-20T03:45:40.395Z,8.41
2022-09-20T03:49:54.845Z,8.31
2022-09-20T03:53:30.579Z,8.23
2022-09-20T03:57:22.393Z,8.12
2022-09-20T04:00:46.735Z,8.05
2022-09-20T04:04:04.756Z,7.93
2022-09-20T04:07:21.278Z,7.86
2022-09-20T04:10:46.937Z,7.78
2022-09-20T04:14:10.636Z,7.67
2022-09-20T04:17:40.031Z,7.55
2022-09-20T04:20:52.216Z,7.52
2022-09-20T04:24:06.995Z,7.46
2022-09-20T04:27:21.583Z,7.42
2022-09-20T04:30:29.866Z,7.37
2022-09-20T04:33:44.147Z,7.35
2022-09-20T04:37:05.003Z,7.28
2022-09-20T04:40:28.219Z,7.25
2022-09-20T04:44:23.018Z,7.20
2022-09-20T04:48:28.012Z,7.15
2022-09-20T04:52:16.116Z,7.11
2022-09-20T04:55:52.275Z,7.07
2022-09-20T04:59:08.279Z,6.99
2022-09-20T05:03:00.738Z,7.05
2022-09-20T05:06:56.297Z,7.09
2022-09-20T05:10:52.685Z,7.13
2022-09-20T05:14:42.325Z,7.16
2022-09-20T05:18:35.228Z,7.23
2022-09-20T05:21:54.542Z,7.25
2022-09-20T05:25:34.271Z,7.37
2022-09-20T05:28:54.845Z,7.43
2022-09-20T05:32:12.870Z,7.53
2022-09-20T05:35:26.566Z,7.54
2022-09-20T05:38:47.300Z,7.63
2022-09-20T05:42:01.783Z,7.67
2022-09-20T05:45:30.438Z,7.66
2022-09-20T05:48:48.230Z,7.75
2022-09-20T05:52:25.433Z,7.86
2022-09-20T05:56:04.205Z,8.01
2022-09-20T05:59:35.888Z,8.08
2022-09-20T06:02:55.198Z,8.18
2022-09-20T06:06:11.643Z,8.25
2022-09-20T06:09:46.995Z,8.31
2022-09-20T06:13:05.721Z,8.43
2022-09-20T06:16:18.359Z,8.50
2022-09-20T06:19:38.006Z,8.62
2022-09-20T06:22:47.261Z,8.71
2022-09-20T06:25:57.726Z,8.77
2022-09-20T06:29:11.967Z,8.85
2022-09-20T06:32:18.662Z,8.85
2022-09-20T06:35:25.395Z,8.93
2022-09-20T06:39:04.254Z,8.97
2022-09-20T06:42:11.019Z,9.02
2022-09-20T06:45:38.066Z,9.15
2022-09-20T06:48:41.736Z,9.20
2022-09-20T06:51:46.673Z,9.13
2022-09-20T06:54:55.875Z,9.24
2022-09-20T06:57:59.818Z,9.26
2022-09-20T07:01:04.894Z,9.30
2022-09-20T07:04:09.657Z,9.33
2022-09-20T07:07:19.211Z,9.50
2022-09-20T07:10:22.720Z,9.44
2022-09-20T07:13:26.644Z,9.47
2022-09-20T07:16:31.735Z,9.57
2022-09-20T07:19:36.784Z,9.74
2022-09-20T07:22:40.677Z,9.82
2022-09-20T07:25:44.339Z,9.92
2022-09-20T07:28:49.501Z,9.82
2022-09-20T07:31:54.748Z,9.98
2022-09-20T07:34:58.493Z,10.06
2022-09-20T07:38:03.079Z,9.99
2022-09-20T07:41:07.112Z,10.05
2022-09-20T07:44:24.878Z,10.22
2022-09-20T07:47:32.531Z,10.37
2022-09-20T07:50:36.915Z,10.44
2022-09-20T07:53:41.727Z,10.69
2022-09-20T07:56:46.171Z,10.56
2022-09-20T07:59:49.793Z,10.67
2022-09-20T08:03:01.283Z,10.67
2022-09-20T08:06:08.223Z,10.59
2022-09-20T08:09:13.587Z,10.70
2022-09-20T08:16:04.964Z,10.86
2022-09-20T08:19:12.791Z,10.98
2022-09-20T08:22:16.426Z,10.94
2022-09-20T08:25:19.999Z,11.08
2022-09-20T08:28:23.631Z,11.02
2022-09-20T08:31:31.511Z,11.23
2022-09-20T08:34:36.595Z,11.23
2022-09-20T08:37:40.219Z,11.29
2022-09-20T08:40:44.016Z,11.34
2022-09-20T08:43:56.008Z,11.27
2022-09-20T08:47:09.986Z,11.45
2022-09-20T08:50:18.079Z,11.78
2022-09-20T08:53:22.084Z,11.86
2022-09-20T08:56:32.684Z,11.85
2022-09-20T08:59:36.301Z,12.21
2022-09-20T09:02:40.760Z,12.38
2022-09-20T09:05:50.356Z,12.45
2022-09-20T09:09:02.077Z,12.59
2022-09-20T09:12:06.998Z,12.85
2022-09-20T09:15:29.370Z,12.82
2022-09-20T09:18:38.757Z,12.90
2022-09-20T09:21:45.607Z,13.04
2022-09-20T09:25:27.823Z,13.10
2022-09-20T09:28:36.899Z,13.05
2022-09-20T09:31:40.557Z,12.86
2022-09-20T09:34:44.260Z,12.75
2022-09-20T09:37:57.467Z,12.71
2022-09-20T09:41:03.672Z,12.17
2022-09-20T09:44:20.158Z,11.13
2022-09-20T09:47:28.787Z,10.62
2022-09-20T09:50:35.351Z,10.24
2022-09-20T09:53:41.560Z,10.15
2022-09-20T09:57:16.036Z,10.02
2022-09-20T10:00:23.974Z,10.11
2022-09-20T10:03:55.028Z,10.06
2022-09-20T10:07:10.847Z,10.27
2022-09-20T10:10:32.420Z,10.27
2022-09-20T10:13:47.927Z,10.26
2022-09-20T10:17:13.572Z,10.37
2022-09-20T10:20:50.229Z,10.22
2022-09-20T10:24:10.103Z,10.33
2022-09-20T10:27:32.676Z,10.42
2022-09-20T10:31:01.739Z,10.52
2022-09-20T10:34:46.127Z,10.78
2022-09-20T10:38:13.285Z,10.84
2022-09-20T10:42:01.937Z,10.89
2022-09-20T10:45:42.062Z,11.12
2022-09-20T10:48:49.732Z,10.98
2022-09-20T10:52:24.109Z,11.36
2022-09-20T10:55:40.416Z,11.62
2022-09-20T10:59:22.486Z,11.69
2022-09-20T11:02:52.098Z,12.13
2022-09-20T11:06:15.339Z,12.03
2022-09-20T11:09:25.870Z,12.13
2022-09-20T11:12:38.350Z,11.82
2022-09-20T11:15:52.709Z,12.37
2022-09-20T11:19:04.572Z,12.28
2022-09-20T11:22:14.503Z,12.22
2022-09-20T11:25:29.647Z,12.57
2022-09-20T11:28:40.592Z,12.43
2022-09-20T11:31:50.553Z,12.59
2022-09-20T11:35:03.061Z,12.99
2022-09-20T11:38:23.739Z,13.11
2022-09-20T11:41:30.275Z,13.05
2022-09-20T11:44:40.257Z,13.10
2022-09-20T11:47:54.941Z,13.09
2022-09-20T11:51:49.644Z,13.28
2022-09-20T11:55:26.415Z,12.93
2022-09-20T11:58:31.566Z,12.93
2022-09-20T12:01:39.728Z,13.06
2022-09-20T12:04:53.139Z,13.16
2022-09-20T12:08:03.348Z,13.42
2022-09-20T12:11:12.211Z,13.94
2022-09-20T12:14:24.077Z,13.59
2022-09-20T12:18:24.703Z,13.24
2022-09-20T12:21:28.542Z,13.23
2022-09-20T12:24:36.562Z,13.38
2022-09-20T12:27:59.254Z,13.72
2022-09-20T12:31:41.823Z,13.39
2022-09-20T12:34:45.460Z,13.80
2022-09-20T12:37:49.047Z,14.04
2022-09-20T12:41:17.016Z,14.15
2022-09-20T12:44:33.259Z,14.01
2022-09-20T12:47:39.258Z,14.06
2022-09-20T12:51:00.145Z,14.48
2022-09-20T12:54:09.123Z,13.94
2022-09-20T12:57:32.242Z,14.12
2022-09-20T13:00:40.734Z,14.22
2022-09-20T13:03:46.078Z,14.13
2022-09-20T13:07:38.912Z,14.14
2022-09-20T13:10:57.170Z,14.11
2022-09-20T13:14:07.074Z,14.06
2022-09-20T13:17:31.957Z,14.03
2022-09-20T13:20:37.246Z,14.28
2022-09-20T13:23:52.526Z,14.45
2022-09-20T13:27:06.715Z,14.20
2022-09-20T13:30:17.667Z,14.22
2022-09-20T13:33:25.607Z,13.95
2022-09-20T13:36:31.717Z,14.16
2022-09-20T13:39:38.110Z,14.54
2022-09-20T13:42:42.325Z,14.28
2022-09-20T13:45:47.970Z,14.20
2022-09-20T13:49:00.739Z,14.15
2022-09-20T13:52:25.047Z,13.84
2022-09-20T13:55:34.698Z,13.82
2022-09-20T13:58:39.130Z,13.69
2022-09-20T14:01:51.573Z,13.50
2022-09-20T14:04:57.901Z,13.34
2022-09-20T14:08:05.205Z,13.35
2022-09-20T14:11:18.083Z,13.49
2022-09-20T14:14:24.191Z,13.79
2022-09-20T14:17:34.298Z,13.49
2022-09-20T14:20:38.212Z,13.46
2022-09-20T14:23:54.153Z,13.77
2022-09-20T14:27:18.968Z,13.81
2022-09-20T14:30:32.713Z,13.88
2022-09-20T14:33:46.989Z,13.75
2022-09-20T14:36:52.111Z,14.00
2022-09-20T14:39:58.956Z,14.02
2022-09-20T14:43:07.403Z,13.80
2022-09-20T14:46:18.103Z,13.77
2022-09-20T14:49:34.086Z,13.72
2022-09-20T14:52:44.177Z,13.86
2022-09-20T14:56:08.915Z,13.86
2022-09-20T14:59:28.102Z,13.79
2022-09-20T15:02:31.770Z,13.69
2022-09-20T15:05:35.625Z,13.60
2022-09-20T15:08:44.013Z,13.70
2022-09-20T15:12:01.343Z,13.61
2022-09-20T15:15:07.431Z,13.56
2022-09-20T15:18:21.701Z,13.36
2022-09-20T15:21:25.404Z,13.53
2022-09-20T15:24:29.194Z,13.53
2022-09-20T15:27:32.787Z,13.51
2022-09-20T15:30:38.175Z,13.57
2022-09-20T15:33:43.960Z,13.52
2022-09-20T15:36:48.800Z,13.53
2022-09-20T15:39:52.555Z,13.60
2022-09-20T15:42:58.235Z,13.54
2022-09-20T15:46:20.619Z,13.54
2022-09-20T15:49:24.499Z,13.58
2022-09-20T15:52:29.109Z,13.48
2022-09-20T15:55:32.825Z,13.45
2022-09-20T15:58:36.831Z,13.60
2022-09-20T16:01:44.125Z,13.52
2022-09-20T16:04:48.115Z,13.55
2022-09-20T16:07:51.823Z,13.48
2022-09-20T16:10:59.501Z,13.39
2022-09-20T16:14:03.711Z,13.54
2022-09-20T16:17:08.781Z,13.54
2022-09-20T16:20:11.471Z,13.38
2022-09-20T16:23:15.669Z,13.17
2022-09-20T16:26:21.579Z,13.08
2022-09-20T16:29:26.046Z,13.00
2022-09-20T16:32:31.271Z,12.98
2022-09-20T16:35:35.070Z,12.93
2022-09-20T16:38:43.614Z,12.82
2022-09-20T16:41:49.226Z,12.67
2022-09-20T16:44:52.960Z,12.58
2022-09-20T16:47:59.193Z,12.50
2022-09-20T16:51:02.947Z,12.36
2022-09-20T16:54:12.258Z,12.26
2022-09-20T16:57:16.186Z,12.05
2022-09-20T17:00:22.069Z,11.97
2022-09-20T17:03:27.231Z,11.87
2022-09-20T17:06:31.296Z,11.67
2022-09-20T17:09:34.908Z,11.57
2022-09-20T17:12:42.131Z,11.45
2022-09-20T17:15:45.740Z,11.31
2022-09-20T17:18:54.357Z,11.20
2022-09-20T17:21:58.069Z,11.10
2022-09-20T17:25:02.135Z,10.98
2022-09-20T17:28:05.699Z,10.87
2022-09-20T17:31:13.544Z,10.78
2022-09-20T17:34:21.895Z,10.64
2022-09-20T17:37:25.738Z,10.55
2022-09-20T17:40:29.396Z,10.44
2022-09-20T17:43:33.460Z,10.33
2022-09-20T17:46:39.283Z,10.24
2022-09-20T17:49:44.350Z,10.14
2022-09-20T17:52:48.067Z,10.01
2022-09-20T17:55:55.690Z,9.91
2022-09-20T17:59:00.821Z,9.83
2022-09-20T18:02:04.495Z,9.74
2022-09-20T18:05:10.446Z,9.66
2022-09-20T18:08:14.020Z,9.56
2022-09-20T18:11:19.769Z,9.50
2022-09-20T18:14:25.619Z,9.40
2022-09-20T18:17:29.187Z,9.32
2022-09-20T18:20:34.171Z,9.19
2022-09-20T18:23:37.796Z,9.11
2022-09-20T18:26:42.103Z,9.07
2022-09-20T18:29:45.671Z,9.07
2022-09-20T18:32:52.566Z,8.97
2022-09-20T18:36:03.515Z,8.89
2022-09-20T18:39:08.010Z,8.84
2022-09-20T18:42:11.731Z,8.87
2022-09-20T18:45:16.664Z,8.85
2022-09-20T18:48:20.211Z,8.75
2022-09-20T18:51:28.840Z,8.69
2022-09-20T18:54:33.641Z,8.71
2022-09-20T18:57:37.974Z,8.69
2022-09-20T19:00:41.663Z,8.64
2022-09-20T19:04:09.058Z,8.60
2022-09-20T19:07:26.907Z,8.53
2022-09-20T19:10:50.451Z,8.51
2022-09-20T19:14:01.471Z,8.48
2022-09-20T19:17:06.734Z,8.45
2022-09-20T19:20:21.231Z,8.40
2022-09-20T19:23:59.909Z,8.37
2022-09-20T19:27:10.163Z,8.34
2022-09-20T19:30:16.801Z,8.32
2022-09-20T19:33:21.098Z,8.27
2022-09-20T19:36:27.356Z,8.26
2022-09-20T19:39:55.020Z,8.20
2022-09-20T19:43:24.859Z,8.07
2022-09-20T19:46:51.715Z,8.02
2022-09-20T19:49:59.960Z,7.93
2022-09-20T19:53:05.020Z,7.88
2022-09-20T19:56:25.712Z,7.80
2022-09-20T19:59:30.235Z,7.75
2022-09-20T20:02:34.630Z,7.70
2022-09-20T20:05:38.587Z,7.66
2022-09-20T20:08:50.747Z,7.63
2022-09-20T20:12:07.879Z,7.57
2022-09-20T20:15:29.770Z,7.54
2022-09-20T20:18:47.561Z,7.52
2022-09-20T20:21:58.996Z,7.42
2022-09-20T20:25:02.911Z,7.35
2022-09-20T20:28:08.475Z,7.31
2022-09-20T20:31:13.255Z,7.29
2022-09-20T20:34:17.669Z,7.26
2022-09-20T20:37:24.358Z,7.25
2022-09-20T20:40:28.443Z,7.22
2022-09-20T20:43:34.780Z,7.18
2022-09-20T20:46:38.387Z,7.14
2022-09-20T20:49:42.423Z,7.10
2022-09-20T20:52:46.093Z,7.08
2022-09-20T20:55:49.615Z,7.03
2022-09-20T20:58:55.342Z,7.01
2022-09-20T21:02:03.388Z,6.98
2022-09-20T21:05:09.991Z,6.92
2022-09-20T21:08:13.538Z,6.91
2022-09-20T21:11:23.486Z,6.90
2022-09-20T21:14:28.453Z,6.87
2022-09-20T21:17:36.062Z,6.80
2022-09-20T21:20:40.350Z,6.77
2022-09-20T21:23:45.751Z,6.76
2022-09-20T21:26:49.543Z,6.73
2022-09-20T21:29:54.499Z,6.73
2022-09-20T21:33:00.563Z,6.71
2022-09-20T21:36:06.167Z,6.62
2022-09-20T21:39:10.070Z,6.59
2022-09-20T21:42:13.882Z,6.59
2022-09-20T21:45:21.015Z,6.57
2022-09-20T21:48:24.787Z,6.57
2022-09-20T21:51:31.085Z,6.52
2022-09-20T21:54:34.711Z,6.52
2022-09-20T21:57:38.249Z,6.49
2022-09-20T22:00:43.284Z,6.47
2022-09-20T22:03:49.683Z,6.44
2022-09-20T22:06:53.826Z,6.42
2022-09-20T22:09:57.324Z,6.42
2022-09-20T22:13:02.619Z,6.42
2022-09-20T22:16:11.007Z,6.38
2022-09-20T22:19:19.265Z,6.38
2022-09-20T22:22:22.778Z,6.35
2022-09-20T22:25:26.763Z,6.33
2022-09-20T22:28:30.311Z,6.32
2022-09-20T22:31:38.207Z,6.26
2022-09-20T22:34:41.934Z,6.20
2022-09-20T22:37:45.427Z,6.18
2022-09-20T22:40:57.004Z,6.16
2022-09-20T22:44:00.659Z,6.14
2022-09-20T22:47:06.042Z,6.18
2022-09-20T22:50:10.039Z,6.10
2022-09-20T22:53:13.689Z,6.01
2022-09-20T22:56:21.111Z,5.97
2022-09-20T22:59:24.710Z,5.97
2022-09-20T23:02:29.728Z,5.88
2022-09-20T23:05:33.265Z,5.82
2022-09-20T23:08:37.127Z,5.83
2022-09-20T23:11:42.815Z,5.82
2022-09-20T23:14:46.412Z,5.72
2022-09-20T23:17:51.285Z,5.75
2022-09-20T23:21:02.990Z,5.73
2022-09-20T23:24:09.259Z,5.70
2022-09-20T23:27:13.148Z,5.72
2022-09-20T23:30:16.799Z,5.74
2022-09-20T23:33:21.787Z,5.69
2022-09-20T23:36:28.007Z,5.69
2022-09-20T23:39:31.615Z,5.66
2022-09-20T23:42:35.151Z,5.67
2022-09-20T23:45:38.803Z,5.66
2022-09-20T23:48:44.738Z,5.67
2022-09-20T23:51:48.448Z,5.66
2022-09-20T23:54:51.971Z,5.62
2022-09-20T23:57:57.720Z,5.59
